sensor_id;sensor_type;location;lat;lon;timestamp;P1;durP1;ratioP1;P2;durP2;ratioP2
211;SDS011;16228;48.800;9.002;2023-09-08T00:01:03;11.97;;;10.87;;
211;SDS011;16228;48.800;9.002;2023-09-08T00:03:30;10.87;;;9.53;;
211;SDS011;16228;48.800;9.002;2023-09-08T00:05:57;11.43;;;10.37;;
211;SDS011;16228;48.800;9.002;2023-09-08T00:08:26;12.07;;;10.73;;
211;SDS011;16228;48.800;9.002;2023-09-08T00:10:53;12.00;;;10.90;;
211;SDS011;16228;48.800;9.002;2023-09-08T00:13:20;11.07;;;9.97;;
211;SDS011;16228;48.800;9.002;2023-09-08T00:15:47;11.17;;;9.80;;
211;SDS011;16228;48.800;9.002;2023-09-08T00:18:13;10.27;;;9.33;;
211;SDS011;16228;48.800;9.002;2023-09-08T00:20:41;13.07;;;10.77;;
211;SDS011;16228;48.800;9.002;2023-09-08T00:23:08;12.70;;;11.37;;
211;SDS011;16228;48.800;9.002;2023-09-08T00:25:36;11.90;;;10.77;;
211;SDS011;16228;48.800;9.002;2023-09-08T00:28:03;10.87;;;9.87;;
211;SDS011;16228;48.800;9.002;2023-09-08T00:30:31;11.00;;;10.00;;
211;SDS011;16228;48.800;9.002;2023-09-08T00:32:58;11.20;;;10.10;;
211;SDS011;16228;48.800;9.002;2023-09-08T00:35:25;11.50;;;10.17;;
211;SDS011;16228;48.800;9.002;2023-09-08T00:37:52;13.23;;;11.93;;
211;SDS011;16228;48.800;9.002;2023-09-08T00:40:19;12.30;;;11.03;;
211;SDS011;16228;48.800;9.002;2023-09-08T00:42:47;11.47;;;10.27;;
211;SDS011;16228;48.800;9.002;2023-09-08T00:45:14;13.30;;;11.87;;
211;SDS011;16228;48.800;9.002;2023-09-08T00:47:41;11.70;;;10.53;;
211;SDS011;16228;48.800;9.002;2023-09-08T00:50:09;11.93;;;10.67;;
211;SDS011;16228;48.800;9.002;2023-09-08T00:52:37;12.33;;;10.37;;
211;SDS011;16228;48.800;9.002;2023-09-08T00:55:04;12.00;;;10.83;;
211;SDS011;16228;48.800;9.002;2023-09-08T00:57:32;11.53;;;10.43;;
211;SDS011;16228;48.800;9.002;2023-09-08T01:00:00;12.20;;;10.90;;
211;SDS011;16228;48.800;9.002;2023-09-08T01:02:30;12.77;;;10.83;;
211;SDS011;16228;48.800;9.002;2023-09-08T01:04:58;15.27;;;12.17;;
211;SDS011;16228;48.800;9.002;2023-09-08T01:07:25;10.83;;;9.83;;
211;SDS011;16228;48.800;9.002;2023-09-08T01:09:55;9.30;;;8.43;;
211;SDS011;16228;48.800;9.002;2023-09-08T01:12:22;12.07;;;10.87;;
211;SDS011;16228;48.800;9.002;2023-09-08T01:14:49;12.93;;;11.10;;
211;SDS011;16228;48.800;9.002;2023-09-08T01:17:18;12.00;;;10.70;;
211;SDS011;16228;48.800;9.002;2023-09-08T01:19:45;10.63;;;9.37;;
211;SDS011;16228;48.800;9.002;2023-09-08T01:22:21;10.57;;;9.67;;
211;SDS011;16228;48.800;9.002;2023-09-08T01:25:08;11.83;;;10.63;;
211;SDS011;16228;48.800;9.002;2023-09-08T01:27:40;10.57;;;9.57;;
211;SDS011;16228;48.800;9.002;2023-09-08T01:30:12;12.70;;;10.80;;
211;SDS011;16228;48.800;9.002;2023-09-08T01:32:40;11.47;;;10.27;;
211;SDS011;16228;48.800;9.002;2023-09-08T01:35:07;15.33;;;10.90;;
211;SDS011;16228;48.800;9.002;2023-09-08T01:37:35;9.87;;;8.97;;
211;SDS011;16228;48.800;9.002;2023-09-08T01:40:02;12.27;;;10.87;;
211;SDS011;16228;48.800;9.002;2023-09-08T01:42:31;13.50;;;10.87;;
211;SDS011;16228;48.800;9.002;2023-09-08T01:44:58;12.30;;;9.93;;
211;SDS011;16228;48.800;9.002;2023-09-08T01:47:25;12.53;;;10.03;;
211;SDS011;16228;48.800;9.002;2023-09-08T01:49:54;9.63;;;8.80;;
211;SDS011;16228;48.800;9.002;2023-09-08T01:52:21;12.83;;;11.50;;
211;SDS011;16228;48.800;9.002;2023-09-08T01:54:48;10.57;;;9.53;;
211;SDS011;16228;48.800;9.002;2023-09-08T01:57:15;10.70;;;9.60;;
211;SDS011;16228;48.800;9.002;2023-09-08T01:59:43;12.00;;;10.63;;
211;SDS011;16228;48.800;9.002;2023-09-08T02:02:11;12.13;;;10.87;;
211;SDS011;16228;48.800;9.002;2023-09-08T02:04:38;12.40;;;9.93;;
211;SDS011;16228;48.800;9.002;2023-09-08T02:07:04;12.07;;;10.87;;
211;SDS011;16228;48.800;9.002;2023-09-08T02:09:32;11.23;;;10.13;;
211;SDS011;16228;48.800;9.002;2023-09-08T02:11:59;11.50;;;10.40;;
211;SDS011;16228;48.800;9.002;2023-09-08T02:14:27;12.87;;;10.63;;
211;SDS011;16228;48.800;9.002;2023-09-08T02:16:55;11.43;;;10.40;;
211;SDS011;16228;48.800;9.002;2023-09-08T02:19:22;12.07;;;10.77;;
211;SDS011;16228;48.800;9.002;2023-09-08T02:21:49;9.93;;;8.83;;
211;SDS011;16228;48.800;9.002;2023-09-08T02:24:16;11.63;;;10.53;;
211;SDS011;16228;48.800;9.002;2023-09-08T02:26:43;11.37;;;10.20;;
211;SDS011;16228;48.800;9.002;2023-09-08T02:29:10;12.37;;;11.10;;
211;SDS011;16228;48.800;9.002;2023-09-08T02:31:37;12.37;;;11.07;;
211;SDS011;16228;48.800;9.002;2023-09-08T02:34:06;13.00;;;11.80;;
211;SDS011;16228;48.800;9.002;2023-09-08T02:36:33;12.20;;;11.00;;
211;SDS011;16228;48.800;9.002;2023-09-08T02:38:59;10.47;;;9.40;;
211;SDS011;16228;48.800;9.002;2023-09-08T02:41:26;11.80;;;10.70;;
211;SDS011;16228;48.800;9.002;2023-09-08T02:43:53;11.43;;;10.33;;
211;SDS011;16228;48.800;9.002;2023-09-08T02:46:20;16.27;;;12.20;;
211;SDS011;16228;48.800;9.002;2023-09-08T02:48:47;13.00;;;11.70;;
211;SDS011;16228;48.800;9.002;2023-09-08T02:51:16;12.00;;;9.97;;
211;SDS011;16228;48.800;9.002;2023-09-08T02:53:43;15.10;;;11.43;;
211;SDS011;16228;48.800;9.002;2023-09-08T02:56:10;11.37;;;10.03;;
211;SDS011;16228;48.800;9.002;2023-09-08T02:58:37;11.43;;;10.40;;
211;SDS011;16228;48.800;9.002;2023-09-08T03:01:10;12.10;;;10.90;;
211;SDS011;16228;48.800;9.002;2023-09-08T03:03:39;12.03;;;10.83;;
211;SDS011;16228;48.800;9.002;2023-09-08T03:06:07;13.17;;;11.97;;
211;SDS011;16228;48.800;9.002;2023-09-08T03:08:36;13.00;;;11.67;;
211;SDS011;16228;48.800;9.002;2023-09-08T03:11:03;13.20;;;11.90;;
211;SDS011;16228;48.800;9.002;2023-09-08T03:13:31;11.97;;;10.67;;
211;SDS011;16228;48.800;9.002;2023-09-08T03:16:01;11.93;;;10.73;;
211;SDS011;16228;48.800;9.002;2023-09-08T03:18:30;12.27;;;11.07;;
211;SDS011;16228;48.800;9.002;2023-09-08T03:20:58;11.77;;;10.57;;
211;SDS011;16228;48.800;9.002;2023-09-08T03:23:26;14.00;;;11.80;;
211;SDS011;16228;48.800;9.002;2023-09-08T03:25:55;13.37;;;10.90;;
211;SDS011;16228;48.800;9.002;2023-09-08T03:28:22;16.57;;;12.57;;
211;SDS011;16228;48.800;9.002;2023-09-08T03:30:49;15.50;;;12.20;;
211;SDS011;16228;48.800;9.002;2023-09-08T03:33:16;12.60;;;11.30;;
211;SDS011;16228;48.800;9.002;2023-09-08T03:35:43;14.80;;;12.37;;
211;SDS011;16228;48.800;9.002;2023-09-08T03:38:10;11.23;;;10.13;;
211;SDS011;16228;48.800;9.002;2023-09-08T03:40:37;13.27;;;11.77;;
211;SDS011;16228;48.800;9.002;2023-09-08T03:43:05;13.10;;;11.50;;
211;SDS011;16228;48.800;9.002;2023-09-08T03:45:32;12.73;;;11.43;;
211;SDS011;16228;48.800;9.002;2023-09-08T03:47:59;11.70;;;10.50;;
211;SDS011;16228;48.800;9.002;2023-09-08T03:50:26;12.93;;;11.57;;
211;SDS011;16228;48.800;9.002;2023-09-08T03:52:53;12.13;;;10.93;;
211;SDS011;16228;48.800;9.002;2023-09-08T03:55:20;10.03;;;9.13;;
211;SDS011;16228;48.800;9.002;2023-09-08T03:57:47;12.03;;;10.83;;
211;SDS011;16228;48.800;9.002;2023-09-08T04:00:15;14.27;;;12.57;;
211;SDS011;16228;48.800;9.002;2023-09-08T04:02:47;11.50;;;10.30;;
211;SDS011;16228;48.800;9.002;2023-09-08T04:05:14;13.73;;;12.03;;
211;SDS011;16228;48.800;9.002;2023-09-08T04:07:41;14.97;;;13.30;;
211;SDS011;16228;48.800;9.002;2023-09-08T04:10:08;13.97;;;12.57;;
211;SDS011;16228;48.800;9.002;2023-09-08T04:12:35;12.40;;;11.20;;
211;SDS011;16228;48.800;9.002;2023-09-08T04:15:03;12.60;;;11.43;;
211;SDS011;16228;48.800;9.002;2023-09-08T04:17:31;13.97;;;12.57;;
211;SDS011;16228;48.800;9.002;2023-09-08T04:19:58;13.67;;;12.37;;
211;SDS011;16228;48.800;9.002;2023-09-08T04:22:25;13.57;;;12.27;;
211;SDS011;16228;48.800;9.002;2023-09-08T04:24:52;12.60;;;11.37;;
211;SDS011;16228;48.800;9.002;2023-09-08T04:27:20;15.40;;;13.60;;
211;SDS011;16228;48.800;9.002;2023-09-08T04:29:47;11.93;;;10.77;;
211;SDS011;16228;48.800;9.002;2023-09-08T04:32:14;14.03;;;11.47;;
211;SDS011;16228;48.800;9.002;2023-09-08T04:34:43;13.10;;;11.77;;
211;SDS011;16228;48.800;9.002;2023-09-08T04:37:10;11.90;;;10.80;;
211;SDS011;16228;48.800;9.002;2023-09-08T04:39:37;12.90;;;11.63;;
211;SDS011;16228;48.800;9.002;2023-09-08T04:42:04;14.93;;;12.23;;
211;SDS011;16228;48.800;9.002;2023-09-08T04:44:31;12.57;;;11.37;;
211;SDS011;16228;48.800;9.002;2023-09-08T04:46:58;12.47;;;11.20;;
211;SDS011;16228;48.800;9.002;2023-09-08T04:49:25;12.23;;;11.00;;
211;SDS011;16228;48.800;9.002;2023-09-08T04:51:55;11.97;;;10.80;;
211;SDS011;16228;48.800;9.002;2023-09-08T04:54:22;12.80;;;11.50;;
211;SDS011;16228;48.800;9.002;2023-09-08T04:56:52;12.10;;;10.90;;
211;SDS011;16228;48.800;9.002;2023-09-08T04:59:19;14.07;;;12.37;;
211;SDS011;16228;48.800;9.002;2023-09-08T05:01:48;12.87;;;10.70;;
211;SDS011;16228;48.800;9.002;2023-09-08T05:04:16;13.00;;;11.60;;
211;SDS011;16228;48.800;9.002;2023-09-08T05:06:43;11.97;;;10.63;;
211;SDS011;16228;48.800;9.002;2023-09-08T05:09:12;11.53;;;10.30;;
211;SDS011;16228;48.800;9.002;2023-09-08T05:11:40;15.03;;;11.57;;
211;SDS011;16228;48.800;9.002;2023-09-08T05:14:07;13.00;;;11.70;;
211;SDS011;16228;48.800;9.002;2023-09-08T05:16:34;12.93;;;11.60;;
211;SDS011;16228;48.800;9.002;2023-09-08T05:19:10;13.53;;;11.53;;
211;SDS011;16228;48.800;9.002;2023-09-08T05:21:38;13.50;;;12.03;;
211;SDS011;16228;48.800;9.002;2023-09-08T05:24:05;12.30;;;11.10;;
211;SDS011;16228;48.800;9.002;2023-09-08T05:26:34;13.00;;;11.70;;
211;SDS011;16228;48.800;9.002;2023-09-08T05:29:03;11.73;;;10.60;;
211;SDS011;16228;48.800;9.002;2023-09-08T05:31:30;12.10;;;10.87;;
211;SDS011;16228;48.800;9.002;2023-09-08T05:33:57;12.13;;;10.93;;
211;SDS011;16228;48.800;9.002;2023-09-08T05:36:24;10.37;;;9.40;;
211;SDS011;16228;48.800;9.002;2023-09-08T05:38:51;13.03;;;11.70;;
211;SDS011;16228;48.800;9.002;2023-09-08T05:41:18;12.80;;;11.50;;
211;SDS011;16228;48.800;9.002;2023-09-08T05:43:46;14.00;;;12.63;;
211;SDS011;16228;48.800;9.002;2023-09-08T05:46:13;12.80;;;11.50;;
211;SDS011;16228;48.800;9.002;2023-09-08T05:48:40;19.47;;;13.27;;
211;SDS011;16228;48.800;9.002;2023-09-08T05:51:07;14.83;;;13.00;;
211;SDS011;16228;48.800;9.002;2023-09-08T05:53:35;12.87;;;10.93;;
211;SDS011;16228;48.800;9.002;2023-09-08T05:56:04;13.13;;;11.83;;
211;SDS011;16228;48.800;9.002;2023-09-08T05:58:31;13.03;;;11.63;;
211;SDS011;16228;48.800;9.002;2023-09-08T06:01:00;12.27;;;11.00;;
211;SDS011;16228;48.800;9.002;2023-09-08T06:03:27;12.20;;;10.90;;
211;SDS011;16228;48.800;9.002;2023-09-08T06:05:55;14.03;;;11.57;;
211;SDS011;16228;48.800;9.002;2023-09-08T06:08:22;12.50;;;11.20;;
211;SDS011;16228;48.800;9.002;2023-09-08T06:10:49;13.93;;;11.90;;
211;SDS011;16228;48.800;9.002;2023-09-08T06:13:16;13.37;;;12.00;;
211;SDS011;16228;48.800;9.002;2023-09-08T06:15:44;14.00;;;11.30;;
211;SDS011;16228;48.800;9.002;2023-09-08T06:18:12;17.80;;;12.80;;
211;SDS011;16228;48.800;9.002;2023-09-08T06:20:43;12.63;;;11.43;;
211;SDS011;16228;48.800;9.002;2023-09-08T06:23:11;12.30;;;11.20;;
211;SDS011;16228;48.800;9.002;2023-09-08T06:25:38;13.00;;;11.60;;
211;SDS011;16228;48.800;9.002;2023-09-08T06:28:05;11.37;;;10.33;;
211;SDS011;16228;48.800;9.002;2023-09-08T06:30:32;12.33;;;11.13;;
211;SDS011;16228;48.800;9.002;2023-09-08T06:32:59;13.70;;;11.67;;
211;SDS011;16228;48.800;9.002;2023-09-08T06:35:27;12.73;;;11.43;;
211;SDS011;16228;48.800;9.002;2023-09-08T06:37:56;12.00;;;10.83;;
211;SDS011;16228;48.800;9.002;2023-09-08T06:40:23;14.17;;;10.53;;
211;SDS011;16228;48.800;9.002;2023-09-08T06:42:50;11.73;;;10.53;;
211;SDS011;16228;48.800;9.002;2023-09-08T06:45:17;10.63;;;9.50;;
211;SDS011;16228;48.800;9.002;2023-09-08T06:47:44;12.13;;;10.97;;
211;SDS011;16228;48.800;9.002;2023-09-08T06:50:11;14.50;;;13.00;;
211;SDS011;16228;48.800;9.002;2023-09-08T06:52:39;12.30;;;11.07;;
211;SDS011;16228;48.800;9.002;2023-09-08T06:55:07;13.40;;;11.40;;
211;SDS011;16228;48.800;9.002;2023-09-08T06:57:34;13.23;;;11.83;;
211;SDS011;16228;48.800;9.002;2023-09-08T07:00:01;13.50;;;11.03;;
211;SDS011;16228;48.800;9.002;2023-09-08T07:02:31;12.47;;;11.17;;
211;SDS011;16228;48.800;9.002;2023-09-08T07:04:58;12.27;;;10.93;;
211;SDS011;16228;48.800;9.002;2023-09-08T07:07:26;11.87;;;10.67;;
211;SDS011;16228;48.800;9.002;2023-09-08T07:09:54;12.10;;;11.00;;
211;SDS011;16228;48.800;9.002;2023-09-08T07:12:21;11.40;;;10.40;;
211;SDS011;16228;48.800;9.002;2023-09-08T07:14:48;11.70;;;10.07;;
211;SDS011;16228;48.800;9.002;2023-09-08T07:17:15;11.40;;;10.30;;
211;SDS011;16228;48.800;9.002;2023-09-08T07:19:42;9.37;;;8.47;;
211;SDS011;16228;48.800;9.002;2023-09-08T07:22:09;6.87;;;6.27;;
211;SDS011;16228;48.800;9.002;2023-09-08T07:24:35;6.27;;;5.53;;
211;SDS011;16228;48.800;9.002;2023-09-08T07:27:04;5.50;;;4.87;;
211;SDS011;16228;48.800;9.002;2023-09-08T07:29:31;7.00;;;5.17;;
211;SDS011;16228;48.800;9.002;2023-09-08T07:31:58;5.93;;;4.80;;
211;SDS011;16228;48.800;9.002;2023-09-08T07:34:25;5.57;;;4.80;;
211;SDS011;16228;48.800;9.002;2023-09-08T07:36:52;5.45;;;4.30;;
211;SDS011;16228;48.800;9.002;2023-09-08T07:39:19;4.88;;;3.88;;
211;SDS011;16228;48.800;9.002;2023-09-08T07:41:46;5.15;;;4.47;;
211;SDS011;16228;48.800;9.002;2023-09-08T07:44:15;5.45;;;4.80;;
211;SDS011;16228;48.800;9.002;2023-09-08T07:46:41;7.70;;;5.43;;
211;SDS011;16228;48.800;9.002;2023-09-08T07:49:11;5.32;;;4.82;;
211;SDS011;16228;48.800;9.002;2023-09-08T07:51:38;5.80;;;5.20;;
211;SDS011;16228;48.800;9.002;2023-09-08T07:54:05;5.32;;;4.82;;
211;SDS011;16228;48.800;9.002;2023-09-08T07:56:32;7.30;;;5.40;;
211;SDS011;16228;48.800;9.002;2023-09-08T07:58:59;5.78;;;4.90;;
211;SDS011;16228;48.800;9.002;2023-09-08T08:01:27;6.55;;;5.28;;
211;SDS011;16228;48.800;9.002;2023-09-08T08:03:54;4.95;;;4.53;;
211;SDS011;16228;48.800;9.002;2023-09-08T08:06:21;5.00;;;4.57;;
211;SDS011;16228;48.800;9.002;2023-09-08T08:08:48;5.95;;;5.03;;
211;SDS011;16228;48.800;9.002;2023-09-08T08:11:15;6.53;;;4.20;;
211;SDS011;16228;48.800;9.002;2023-09-08T08:13:43;4.95;;;4.28;;
211;SDS011;16228;48.800;9.002;2023-09-08T08:16:12;5.32;;;4.82;;
211;SDS011;16228;48.800;9.002;2023-09-08T08:18:40;5.95;;;4.15;;
211;SDS011;16228;48.800;9.002;2023-09-08T08:21:07;6.38;;;4.00;;
211;SDS011;16228;48.800;9.002;2023-09-08T08:23:34;5.88;;;4.85;;
211;SDS011;16228;48.800;9.002;2023-09-08T08:26:03;5.22;;;4.70;;
211;SDS011;16228;48.800;9.002;2023-09-08T08:28:30;5.35;;;4.43;;
211;SDS011;16228;48.800;9.002;2023-09-08T08:30:57;4.53;;;4.00;;
211;SDS011;16228;48.800;9.002;2023-09-08T08:33:24;8.20;;;4.90;;
211;SDS011;16228;48.800;9.002;2023-09-08T08:35:53;3.90;;;3.50;;
211;SDS011;16228;48.800;9.002;2023-09-08T08:38:20;6.18;;;4.13;;
211;SDS011;16228;48.800;9.002;2023-09-08T08:40:48;5.65;;;4.53;;
211;SDS011;16228;48.800;9.002;2023-09-08T08:43:15;7.18;;;4.38;;
211;SDS011;16228;48.800;9.002;2023-09-08T08:45:42;8.27;;;4.60;;
211;SDS011;16228;48.800;9.002;2023-09-08T08:48:10;5.75;;;3.58;;
211;SDS011;16228;48.800;9.002;2023-09-08T08:50:39;6.70;;;5.10;;
211;SDS011;16228;48.800;9.002;2023-09-08T08:53:09;5.00;;;4.35;;
211;SDS011;16228;48.800;9.002;2023-09-08T08:55:39;6.40;;;3.85;;
211;SDS011;16228;48.800;9.002;2023-09-08T08:58:06;5.72;;;4.03;;
211;SDS011;16228;48.800;9.002;2023-09-08T09:00:34;5.05;;;3.80;;
211;SDS011;16228;48.800;9.002;2023-09-08T09:03:04;4.63;;;4.20;;
211;SDS011;16228;48.800;9.002;2023-09-08T09:05:32;5.57;;;4.20;;
211;SDS011;16228;48.800;9.002;2023-09-08T09:08:01;4.68;;;4.00;;
211;SDS011;16228;48.800;9.002;2023-09-08T09:10:31;4.32;;;3.80;;
211;SDS011;16228;48.800;9.002;2023-09-08T09:12:58;5.65;;;3.95;;
211;SDS011;16228;48.800;9.002;2023-09-08T09:15:28;6.65;;;3.97;;
211;SDS011;16228;48.800;9.002;2023-09-08T09:18:01;7.32;;;4.30;;
211;SDS011;16228;48.800;9.002;2023-09-08T09:20:29;7.07;;;3.97;;
211;SDS011;16228;48.800;9.002;2023-09-08T09:22:56;6.60;;;3.65;;
211;SDS011;16228;48.800;9.002;2023-09-08T09:25:23;6.95;;;4.65;;
211;SDS011;16228;48.800;9.002;2023-09-08T09:27:53;4.55;;;4.10;;
211;SDS011;16228;48.800;9.002;2023-09-08T09:30:21;5.75;;;4.20;;
211;SDS011;16228;48.800;9.002;2023-09-08T09:32:57;7.25;;;4.68;;
211;SDS011;16228;48.800;9.002;2023-09-08T09:35:41;6.28;;;4.60;;
211;SDS011;16228;48.800;9.002;2023-09-08T09:38:09;4.70;;;3.60;;
211;SDS011;16228;48.800;9.002;2023-09-08T09:40:36;6.45;;;4.10;;
211;SDS011;16228;48.800;9.002;2023-09-08T09:43:06;5.90;;;3.92;;
211;SDS011;16228;48.800;9.002;2023-09-08T09:45:33;4.18;;;3.78;;
211;SDS011;16228;48.800;9.002;2023-09-08T09:48:01;5.00;;;4.28;;
211;SDS011;16228;48.800;9.002;2023-09-08T09:50:30;4.35;;;3.95;;
211;SDS011;16228;48.800;9.002;2023-09-08T09:52:59;6.00;;;3.78;;
211;SDS011;16228;48.800;9.002;2023-09-08T09:55:28;4.90;;;3.72;;
211;SDS011;16228;48.800;9.002;2023-09-08T09:57:56;5.95;;;3.90;;
211;SDS011;16228;48.800;9.002;2023-09-08T10:00:27;4.18;;;3.88;;
211;SDS011;16228;48.800;9.002;2023-09-08T10:02:54;5.40;;;3.58;;
211;SDS011;16228;48.800;9.002;2023-09-08T10:05:23;6.32;;;4.07;;
211;SDS011;16228;48.800;9.002;2023-09-08T10:07:50;4.88;;;4.47;;
211;SDS011;16228;48.800;9.002;2023-09-08T10:10:18;5.85;;;4.28;;
211;SDS011;16228;48.800;9.002;2023-09-08T10:12:49;4.20;;;3.80;;
211;SDS011;16228;48.800;9.002;2023-09-08T10:15:19;5.60;;;4.10;;
211;SDS011;16228;48.800;9.002;2023-09-08T10:17:52;4.18;;;3.78;;
211;SDS011;16228;48.800;9.002;2023-09-08T10:20:22;5.00;;;3.75;;
211;SDS011;16228;48.800;9.002;2023-09-08T10:22:54;6.85;;;4.35;;
211;SDS011;16228;48.800;9.002;2023-09-08T10:25:26;4.72;;;4.22;;
211;SDS011;16228;48.800;9.002;2023-09-08T10:27:57;3.72;;;3.40;;
211;SDS011;16228;48.800;9.002;2023-09-08T10:30:25;5.22;;;4.18;;
211;SDS011;16228;48.800;9.002;2023-09-08T10:32:53;4.63;;;3.83;;
211;SDS011;16228;48.800;9.002;2023-09-08T10:35:21;7.00;;;3.92;;
211;SDS011;16228;48.800;9.002;2023-09-08T10:37:48;6.68;;;4.38;;
211;SDS011;16228;48.800;9.002;2023-09-08T10:40:21;5.18;;;3.90;;
211;SDS011;16228;48.800;9.002;2023-09-08T10:42:49;5.22;;;4.38;;
211;SDS011;16228;48.800;9.002;2023-09-08T10:45:31;3.78;;;3.47;;
211;SDS011;16228;48.800;9.002;2023-09-08T10:47:59;3.90;;;3.15;;
211;SDS011;16228;48.800;9.002;2023-09-08T10:50:30;3.78;;;3.47;;
211;SDS011;16228;48.800;9.002;2023-09-08T10:53:10;4.22;;;3.80;;
211;SDS011;16228;48.800;9.002;2023-09-08T10:55:39;5.03;;;4.63;;
211;SDS011;16228;48.800;9.002;2023-09-08T10:58:10;5.15;;;4.60;;
211;SDS011;16228;48.800;9.002;2023-09-08T11:00:43;4.10;;;3.80;;
211;SDS011;16228;48.800;9.002;2023-09-08T11:03:13;4.00;;;3.70;;
211;SDS011;16228;48.800;9.002;2023-09-08T11:05:43;4.15;;;3.45;;
211;SDS011;16228;48.800;9.002;2023-09-08T11:08:10;4.57;;;4.18;;
211;SDS011;16228;48.800;9.002;2023-09-08T11:10:37;4.65;;;4.25;;
211;SDS011;16228;48.800;9.002;2023-09-08T11:13:06;4.22;;;3.83;;
211;SDS011;16228;48.800;9.002;2023-09-08T11:15:33;4.22;;;3.83;;
211;SDS011;16228;48.800;9.002;2023-09-08T11:18:06;3.88;;;3.58;;
211;SDS011;16228;48.800;9.002;2023-09-08T11:20:35;5.03;;;4.53;;
211;SDS011;16228;48.800;9.002;2023-09-08T11:23:02;3.78;;;3.47;;
211;SDS011;16228;48.800;9.002;2023-09-08T11:25:31;4.25;;;3.85;;
211;SDS011;16228;48.800;9.002;2023-09-08T11:27:59;5.95;;;4.75;;
211;SDS011;16228;48.800;9.002;2023-09-08T11:30:26;4.10;;;3.70;;
211;SDS011;16228;48.800;9.002;2023-09-08T11:32:54;5.65;;;4.57;;
211;SDS011;16228;48.800;9.002;2023-09-08T11:35:26;5.55;;;4.07;;
211;SDS011;16228;48.800;9.002;2023-09-08T11:37:59;5.18;;;3.60;;
211;SDS011;16228;48.800;9.002;2023-09-08T11:40:28;5.43;;;4.03;;
211;SDS011;16228;48.800;9.002;2023-09-08T11:42:56;7.43;;;4.78;;
211;SDS011;16228;48.800;9.002;2023-09-08T11:45:23;5.85;;;4.43;;
211;SDS011;16228;48.800;9.002;2023-09-08T11:47:52;5.18;;;4.55;;
211;SDS011;16228;48.800;9.002;2023-09-08T11:50:19;4.60;;;4.03;;
211;SDS011;16228;48.800;9.002;2023-09-08T11:52:47;4.72;;;4.10;;
211;SDS011;16228;48.800;9.002;2023-09-08T11:55:16;5.97;;;4.20;;
211;SDS011;16228;48.800;9.002;2023-09-08T11:57:45;5.53;;;3.80;;
211;SDS011;16228;48.800;9.002;2023-09-08T12:00:16;4.22;;;3.83;;
211;SDS011;16228;48.800;9.002;2023-09-08T12:02:46;5.15;;;4.05;;
211;SDS011;16228;48.800;9.002;2023-09-08T12:05:13;7.40;;;4.32;;
211;SDS011;16228;48.800;9.002;2023-09-08T12:07:47;7.10;;;3.72;;
211;SDS011;16228;48.800;9.002;2023-09-08T12:10:16;5.95;;;4.32;;
211;SDS011;16228;48.800;9.002;2023-09-08T12:12:44;3.83;;;3.53;;
211;SDS011;16228;48.800;9.002;2023-09-08T12:17:58;6.53;;;4.80;;
211;SDS011;16228;48.800;9.002;2023-09-08T12:20:26;5.80;;;4.20;;
211;SDS011;16228;48.800;9.002;2023-09-08T12:22:53;3.53;;;3.20;;
211;SDS011;16228;48.800;9.002;2023-09-08T12:25:22;4.72;;;3.47;;
211;SDS011;16228;48.800;9.002;2023-09-08T12:27:49;4.97;;;4.50;;
211;SDS011;16228;48.800;9.002;2023-09-08T12:30:18;5.57;;;4.47;;
211;SDS011;16228;48.800;9.002;2023-09-08T12:32:46;7.45;;;4.25;;
211;SDS011;16228;48.800;9.002;2023-09-08T12:35:19;5.40;;;3.33;;
211;SDS011;16228;48.800;9.002;2023-09-08T12:37:59;7.25;;;3.92;;
211;SDS011;16228;48.800;9.002;2023-09-08T12:40:29;5.50;;;4.00;;
211;SDS011;16228;48.800;9.002;2023-09-08T12:42:57;6.82;;;4.30;;
211;SDS011;16228;48.800;9.002;2023-09-08T12:45:25;4.88;;;4.25;;
211;SDS011;16228;48.800;9.002;2023-09-08T12:47:53;3.90;;;3.50;;
211;SDS011;16228;48.800;9.002;2023-09-08T12:50:23;3.72;;;3.42;;
211;SDS011;16228;48.800;9.002;2023-09-08T12:52:50;4.35;;;4.00;;
211;SDS011;16228;48.800;9.002;2023-09-08T12:55:17;6.57;;;4.05;;
211;SDS011;16228;48.800;9.002;2023-09-08T12:57:46;4.35;;;3.88;;
211;SDS011;16228;48.800;9.002;2023-09-08T13:00:13;5.43;;;3.85;;
211;SDS011;16228;48.800;9.002;2023-09-08T13:02:40;7.20;;;4.38;;
211;SDS011;16228;48.800;9.002;2023-09-08T13:05:07;3.70;;;3.42;;
211;SDS011;16228;48.800;9.002;2023-09-08T13:07:35;7.70;;;4.35;;
211;SDS011;16228;48.800;9.002;2023-09-08T13:10:02;4.32;;;3.92;;
211;SDS011;16228;48.800;9.002;2023-09-08T13:12:29;5.05;;;4.65;;
211;SDS011;16228;48.800;9.002;2023-09-08T13:14:58;4.50;;;4.00;;
211;SDS011;16228;48.800;9.002;2023-09-08T13:17:25;5.32;;;3.90;;
211;SDS011;16228;48.800;9.002;2023-09-08T13:19:52;5.05;;;4.13;;
211;SDS011;16228;48.800;9.002;2023-09-08T13:22:20;5.38;;;4.38;;
211;SDS011;16228;48.800;9.002;2023-09-08T13:24:47;4.63;;;3.88;;
211;SDS011;16228;48.800;9.002;2023-09-08T13:27:14;4.78;;;4.38;;
211;SDS011;16228;48.800;9.002;2023-09-08T13:29:42;4.25;;;3.90;;
211;SDS011;16228;48.800;9.002;2023-09-08T13:32:11;4.90;;;4.40;;
211;SDS011;16228;48.800;9.002;2023-09-08T13:34:38;6.72;;;4.30;;
211;SDS011;16228;48.800;9.002;2023-09-08T13:37:05;4.50;;;4.13;;
211;SDS011;16228;48.800;9.002;2023-09-08T13:39:33;6.00;;;4.57;;
211;SDS011;16228;48.800;9.002;2023-09-08T13:42:00;8.23;;;4.82;;
211;SDS011;16228;48.800;9.002;2023-09-08T13:44:28;5.38;;;4.88;;
211;SDS011;16228;48.800;9.002;2023-09-08T13:46:55;6.43;;;4.57;;
211;SDS011;16228;48.800;9.002;2023-09-08T13:49:23;6.03;;;4.22;;
211;SDS011;16228;48.800;9.002;2023-09-08T13:51:52;8.70;;;4.28;;
211;SDS011;16228;48.800;9.002;2023-09-08T13:54:19;6.05;;;4.38;;
211;SDS011;16228;48.800;9.002;2023-09-08T13:56:56;5.78;;;4.90;;
211;SDS011;16228;48.800;9.002;2023-09-08T13:59:25;4.88;;;4.30;;
211;SDS011;16228;48.800;9.002;2023-09-08T14:01:53;6.88;;;4.65;;
211;SDS011;16228;48.800;9.002;2023-09-08T14:04:21;5.40;;;4.70;;
211;SDS011;16228;48.800;9.002;2023-09-08T14:06:49;5.03;;;4.30;;
211;SDS011;16228;48.800;9.002;2023-09-08T14:09:16;4.83;;;4.43;;
211;SDS011;16228;48.800;9.002;2023-09-08T14:11:43;6.67;;;4.77;;
211;SDS011;16228;48.800;9.002;2023-09-08T14:14:10;5.30;;;4.77;;
211;SDS011;16228;48.800;9.002;2023-09-08T14:16:37;5.30;;;4.80;;
211;SDS011;16228;48.800;9.002;2023-09-08T14:19:04;7.33;;;5.00;;
211;SDS011;16228;48.800;9.002;2023-09-08T14:21:31;5.87;;;5.27;;
211;SDS011;16228;48.800;9.002;2023-09-08T14:24:00;5.83;;;4.20;;
211;SDS011;16228;48.800;9.002;2023-09-08T14:26:27;5.67;;;5.27;;
211;SDS011;16228;48.800;9.002;2023-09-08T14:28:53;5.33;;;4.37;;
211;SDS011;16228;48.800;9.002;2023-09-08T14:31:20;5.83;;;4.37;;
211;SDS011;16228;48.800;9.002;2023-09-08T14:33:47;5.93;;;5.33;;
211;SDS011;16228;48.800;9.002;2023-09-08T14:36:16;5.33;;;4.70;;
211;SDS011;16228;48.800;9.002;2023-09-08T14:38:44;4.97;;;4.57;;
211;SDS011;16228;48.800;9.002;2023-09-08T14:41:13;5.33;;;4.83;;
211;SDS011;16228;48.800;9.002;2023-09-08T14:43:40;5.47;;;4.80;;
211;SDS011;16228;48.800;9.002;2023-09-08T14:46:07;4.93;;;4.53;;
211;SDS011;16228;48.800;9.002;2023-09-08T14:48:34;5.20;;;4.20;;
211;SDS011;16228;48.800;9.002;2023-09-08T14:51:01;4.60;;;4.20;;
211;SDS011;16228;48.800;9.002;2023-09-08T14:53:29;5.30;;;4.80;;
211;SDS011;16228;48.800;9.002;2023-09-08T14:55:56;4.90;;;4.50;;
211;SDS011;16228;48.800;9.002;2023-09-08T14:58:25;4.63;;;4.10;;
211;SDS011;16228;48.800;9.002;2023-09-08T15:00:57;5.10;;;4.60;;
211;SDS011;16228;48.800;9.002;2023-09-08T15:03:28;6.30;;;4.60;;
211;SDS011;16228;48.800;9.002;2023-09-08T15:05:56;6.60;;;4.73;;
211;SDS011;16228;48.800;9.002;2023-09-08T15:08:23;4.60;;;4.17;;
211;SDS011;16228;48.800;9.002;2023-09-08T15:10:50;4.90;;;4.40;;